createdAt,value
2018-12-03T00:01:28.247Z,0.88
2018-12-03T00:03:59.673Z,0.85
2018-12-03T00:06:27.451Z,1.10
2018-12-03T00:08:55.300Z,1.07
2018-12-03T00:11:23.129Z,0.93
2018-12-03T00:13:50.914Z,0.80
2018-12-03T00:16:18.665Z,0.80
2018-12-03T00:18:46.512Z,1.17
2018-12-03T00:21:14.289Z,1.07
2018-12-03T00:23:42.113Z,0.90
2018-12-03T00:26:09.887Z,0.98
2018-12-03T00:28:37.694Z,0.85
2018-12-03T00:31:05.523Z,1.20
2018-12-03T00:33:33.317Z,1.10
2018-12-03T00:36:01.161Z,1.30
2018-12-03T00:38:29.020Z,1.00
2018-12-03T00:40:56.835Z,1.00
2018-12-03T00:43:24.622Z,1.30
2018-12-03T00:45:52.379Z,1.25
2018-12-03T00:48:20.082Z,1.40
2018-12-03T00:50:47.840Z,1.25
2018-12-03T00:53:15.583Z,1.62
2018-12-03T00:55:43.452Z,1.30
2018-12-03T00:58:11.186Z,1.70
2018-12-03T01:00:39.031Z,1.70
2018-12-03T01:03:06.806Z,2.37
2018-12-03T01:05:34.549Z,1.95
2018-12-03T01:08:02.380Z,2.05
2018-12-03T01:10:30.159Z,2.20
2018-12-03T01:12:57.953Z,2.55
2018-12-03T01:15:25.766Z,1.52
2018-12-03T01:17:53.506Z,1.90
2018-12-03T01:20:21.336Z,2.40
2018-12-03T01:22:49.240Z,1.70
2018-12-03T01:25:17.089Z,1.90
2018-12-03T01:27:44.892Z,1.42
2018-12-03T01:30:12.727Z,1.80
2018-12-03T01:32:40.525Z,1.70
2018-12-03T01:35:09.357Z,1.82
2018-12-03T01:37:37.287Z,1.47
2018-12-03T01:40:10.595Z,1.92
2018-12-03T01:42:38.682Z,1.82
2018-12-03T01:45:09.683Z,1.70
2018-12-03T01:47:37.461Z,1.90
2018-12-03T01:50:07.821Z,1.60
2018-12-03T01:52:35.598Z,1.60
2018-12-03T01:55:04.181Z,2.20
2018-12-03T01:57:32.020Z,1.65
2018-12-03T01:59:59.871Z,1.82
2018-12-03T02:02:27.612Z,2.20
2018-12-03T02:04:55.452Z,3.60
2018-12-03T02:07:23.266Z,1.75
2018-12-03T02:09:51.165Z,1.90
2018-12-03T02:12:18.979Z,1.85
2018-12-03T02:14:46.881Z,2.40
2018-12-03T02:17:14.870Z,2.45
2018-12-03T02:19:42.713Z,2.98
2018-12-03T02:22:10.500Z,2.45
2018-12-03T02:24:38.305Z,2.33
2018-12-03T02:27:06.417Z,2.83
2018-12-03T02:29:34.228Z,6.00
2018-12-03T02:32:02.133Z,3.35
2018-12-03T02:34:29.964Z,3.05
2018-12-03T02:36:57.790Z,2.70
2018-12-03T02:39:25.597Z,2.22
2018-12-03T02:41:53.437Z,2.57
2018-12-03T02:44:21.243Z,2.75
2018-12-03T02:46:49.133Z,3.27
2018-12-03T02:49:16.949Z,2.92
2018-12-03T02:51:44.771Z,2.60
2018-12-03T02:54:12.586Z,2.65
2018-12-03T02:56:40.418Z,2.60
2018-12-03T02:59:08.233Z,2.80
2018-12-03T03:01:36.096Z,2.52
2018-12-03T03:04:04.019Z,2.85
2018-12-03T03:06:31.832Z,2.95
2018-12-03T03:08:59.719Z,2.55
2018-12-03T03:11:27.522Z,2.30
2018-12-03T03:13:55.304Z,2.75
2018-12-03T03:16:23.114Z,2.55
2018-12-03T03:18:50.928Z,2.20
2018-12-03T03:21:18.789Z,2.77
2018-12-03T03:23:46.570Z,2.65
2018-12-03T03:26:14.377Z,3.10
2018-12-03T03:28:42.119Z,2.40
2018-12-03T03:31:09.942Z,2.80
2018-12-03T03:33:37.689Z,2.20
2018-12-03T03:36:05.482Z,2.02
2018-12-03T03:38:34.802Z,2.60
2018-12-03T03:41:02.578Z,1.85
2018-12-03T03:43:30.356Z,1.98
2018-12-03T03:45:58.131Z,1.75
2018-12-03T03:48:25.912Z,2.85
2018-12-03T03:50:53.662Z,1.30
2018-12-03T03:53:21.480Z,1.47
2018-12-03T03:55:49.342Z,1.45
2018-12-03T03:58:17.103Z,1.42
2018-12-03T04:00:44.895Z,1.67
2018-12-03T04:03:12.660Z,1.32
2018-12-03T04:05:40.431Z,2.27
2018-12-03T04:08:08.352Z,1.20
2018-12-03T04:10:36.177Z,1.55
2018-12-03T04:13:04.195Z,1.30
2018-12-03T04:15:32.020Z,1.00
2018-12-03T04:17:59.826Z,1.17
2018-12-03T04:20:27.616Z,1.57
2018-12-03T04:22:55.522Z,1.47
2018-12-03T04:25:23.364Z,1.30
2018-12-03T04:27:51.151Z,1.70
2018-12-03T04:30:20.157Z,1.20
2018-12-03T04:32:47.976Z,0.90
2018-12-03T04:35:15.776Z,1.17
2018-12-03T04:37:43.973Z,1.45
2018-12-03T04:40:12.940Z,1.20
2018-12-03T04:42:40.773Z,1.50
2018-12-03T04:45:10.768Z,1.72
2018-12-03T04:47:38.545Z,1.65
2018-12-03T04:50:09.248Z,1.20
2018-12-03T04:52:37.006Z,1.10
2018-12-03T04:55:05.458Z,1.52
2018-12-03T04:57:33.272Z,1.45
2018-12-03T05:00:01.034Z,1.30
2018-12-03T05:02:28.825Z,1.90
2018-12-03T05:04:56.583Z,1.17
2018-12-03T05:07:24.355Z,1.57
2018-12-03T05:09:52.118Z,1.20
2018-12-03T05:12:19.876Z,0.98
2018-12-03T05:14:47.695Z,1.30
2018-12-03T05:17:15.460Z,1.20
2018-12-03T05:19:43.256Z,1.40
2018-12-03T05:22:11.016Z,1.40
2018-12-03T05:24:38.779Z,1.12
2018-12-03T05:27:06.537Z,0.80
2018-12-03T05:29:34.319Z,1.27
2018-12-03T05:32:02.083Z,1.00
2018-12-03T05:34:29.827Z,1.22
2018-12-03T05:36:57.590Z,0.90
2018-12-03T05:39:25.356Z,1.00
2018-12-03T05:41:53.163Z,1.02
2018-12-03T05:44:20.923Z,0.80
2018-12-03T05:46:48.695Z,0.80
2018-12-03T05:49:16.471Z,1.10
2018-12-03T05:51:44.312Z,1.05
2018-12-03T05:54:12.077Z,0.90
2018-12-03T05:56:39.961Z,1.10
2018-12-03T05:59:07.879Z,1.02
2018-12-03T06:01:35.672Z,0.95
2018-12-03T06:04:03.551Z,0.90
2018-12-03T06:06:31.351Z,1.10
2018-12-03T06:08:59.139Z,1.45
2018-12-03T06:11:28.073Z,1.10
2018-12-03T06:13:54.836Z,1.30
2018-12-03T06:16:22.646Z,1.60
2018-12-03T06:18:50.386Z,1.22
2018-12-03T06:21:18.169Z,1.40
2018-12-03T06:23:45.968Z,2.17
2018-12-03T06:26:13.787Z,2.52
2018-12-03T06:28:41.552Z,2.70
2018-12-03T06:31:09.374Z,2.65
2018-12-03T06:33:37.268Z,1.77
2018-12-03T06:36:05.467Z,2.50
2018-12-03T06:38:33.275Z,2.00
2018-12-03T06:41:01.096Z,2.62
2018-12-03T06:43:28.855Z,2.17
2018-12-03T06:45:56.606Z,2.60
2018-12-03T06:48:24.478Z,2.00
2018-12-03T06:50:52.287Z,2.37
2018-12-03T06:53:20.083Z,2.02
2018-12-03T06:55:47.859Z,2.37
2018-12-03T06:58:16.059Z,1.67
2018-12-03T07:00:47.187Z,2.58
2018-12-03T07:03:15.092Z,2.10
2018-12-03T07:05:43.777Z,2.90
2018-12-03T07:08:11.624Z,2.37
2018-12-03T07:10:39.724Z,2.90
2018-12-03T07:13:11.137Z,2.00
2018-12-03T07:15:40.854Z,2.58
2018-12-03T07:18:09.439Z,2.25
2018-12-03T07:20:37.299Z,1.77
2018-12-03T07:23:05.282Z,2.45
2018-12-03T07:25:33.119Z,2.70
2018-12-03T07:28:00.863Z,1.92
2018-12-03T07:30:28.628Z,2.75
2018-12-03T07:32:56.417Z,2.67
2018-12-03T07:35:24.192Z,2.80
2018-12-03T07:37:53.225Z,3.22
2018-12-03T07:40:21.024Z,2.92
2018-12-03T07:42:48.844Z,3.58
2018-12-03T07:45:17.991Z,3.52
2018-12-03T07:47:45.756Z,3.40
2018-12-03T07:50:14.684Z,3.05
2018-12-03T07:52:42.504Z,3.50
2018-12-03T07:55:12.397Z,2.50
2018-12-03T07:57:41.670Z,2.50
2018-12-03T08:00:45.851Z,3.02
2018-12-03T08:03:12.282Z,3.17
2018-12-03T08:05:38.732Z,3.47
2018-12-03T08:08:05.166Z,4.00
2018-12-03T08:10:31.581Z,3.10
2018-12-03T08:12:58.044Z,3.13
2018-12-03T08:15:24.465Z,2.83
2018-12-03T08:17:50.960Z,3.37
2018-12-03T08:20:17.512Z,3.45
2018-12-03T08:22:44.011Z,2.40
2018-12-03T08:25:17.599Z,3.10
2018-12-03T08:27:44.093Z,3.12
2018-12-03T08:30:10.734Z,4.22
2018-12-03T08:32:37.237Z,3.00
2018-12-03T08:35:05.980Z,3.87
2018-12-03T08:37:32.406Z,2.70
2018-12-03T08:39:58.958Z,2.98
2018-12-03T08:42:25.483Z,3.30
2018-12-03T08:44:52.038Z,3.40
2018-12-03T08:47:18.490Z,2.92
2018-12-03T08:49:45.013Z,2.40
2018-12-03T08:52:11.602Z,2.92
2018-12-03T08:54:38.147Z,3.05
2018-12-03T08:57:04.747Z,3.45
2018-12-03T08:59:31.213Z,3.17
2018-12-03T09:01:57.667Z,3.25
2018-12-03T09:04:24.379Z,3.45
2018-12-03T09:06:50.891Z,2.77
2018-12-03T09:09:17.395Z,3.77
2018-12-03T09:11:43.895Z,2.70
2018-12-03T09:14:10.469Z,3.20
2018-12-03T09:16:36.923Z,2.80
2018-12-03T09:19:03.883Z,3.17
2018-12-03T09:21:30.433Z,2.93
2018-12-03T09:23:57.613Z,3.90
2018-12-03T09:26:24.090Z,5.47
2018-12-03T09:28:50.530Z,3.70
2018-12-03T09:31:17.036Z,3.27
2018-12-03T09:33:48.179Z,3.35
2018-12-03T09:36:15.297Z,3.52
2018-12-03T09:38:55.090Z,3.10
2018-12-03T09:41:21.666Z,3.60
2018-12-03T09:43:48.129Z,3.33
2018-12-03T09:46:18.324Z,4.20
2018-12-03T09:48:44.719Z,3.05
2018-12-03T09:51:11.159Z,3.30
2018-12-03T09:53:37.560Z,4.08
2018-12-03T09:56:04.232Z,3.60
2018-12-03T09:58:30.660Z,5.12
2018-12-03T10:00:57.080Z,3.12
2018-12-03T10:03:23.524Z,2.87
2018-12-03T10:05:49.985Z,5.87
2018-12-03T10:08:21.231Z,3.60
2018-12-03T10:10:47.703Z,3.15
2018-12-03T10:13:14.220Z,3.40
2018-12-03T10:15:40.690Z,3.40
2018-12-03T10:18:07.276Z,3.52
2018-12-03T10:20:33.783Z,4.40
2018-12-03T10:23:00.274Z,4.23
2018-12-03T10:25:26.712Z,4.20
2018-12-03T10:27:56.108Z,4.15
2018-12-03T10:30:22.589Z,5.10
2018-12-03T10:32:49.096Z,3.95
2018-12-03T10:35:15.814Z,3.35
2018-12-03T10:37:42.300Z,3.67
2018-12-03T10:40:08.893Z,2.77
2018-12-03T10:42:35.580Z,3.37
2018-12-03T10:45:02.146Z,2.47
2018-12-03T10:47:28.754Z,3.12
2018-12-03T10:49:55.251Z,4.47
2018-12-03T10:52:21.819Z,2.80
2018-12-03T10:54:48.263Z,3.00
2018-12-03T10:57:14.804Z,2.17
2018-12-03T10:59:46.263Z,2.63
2018-12-03T11:02:14.831Z,2.57
2018-12-03T11:04:46.176Z,3.37
2018-12-03T11:07:12.751Z,2.67
2018-12-03T11:09:39.223Z,4.67
2018-12-03T11:12:05.938Z,2.53
2018-12-03T11:14:32.535Z,3.03
2018-12-03T11:16:59.036Z,2.10
2018-12-03T11:19:25.586Z,2.53
2018-12-03T11:21:52.238Z,2.33
2018-12-03T11:24:18.840Z,2.83
2018-12-03T11:26:45.261Z,3.20
2018-12-03T11:29:11.902Z,2.90
2018-12-03T11:31:38.356Z,3.10
2018-12-03T11:34:05.037Z,2.90
2018-12-03T11:36:31.516Z,2.70
2018-12-03T11:38:57.976Z,3.27
2018-12-03T11:41:24.451Z,3.10
2018-12-03T11:43:50.988Z,3.50
2018-12-03T11:46:17.496Z,2.87
2018-12-03T11:48:43.928Z,3.90
2018-12-03T11:51:10.479Z,4.40
2018-12-03T11:53:37.028Z,3.47
2018-12-03T11:56:03.923Z,3.43
2018-12-03T11:58:30.478Z,4.37
2018-12-03T12:00:56.912Z,3.63
2018-12-03T12:03:23.411Z,4.07
2018-12-03T12:05:49.912Z,2.67
2018-12-03T12:08:16.380Z,2.80
2018-12-03T12:10:42.852Z,3.80
2018-12-03T12:13:09.347Z,2.70
2018-12-03T12:15:35.767Z,3.70
2018-12-03T12:18:02.175Z,2.57
2018-12-03T12:20:28.611Z,3.13
2018-12-03T12:25:56.583Z,3.33
2018-12-03T12:28:23.099Z,4.67
2018-12-03T12:30:49.611Z,3.87
2018-12-03T12:33:16.017Z,4.37
2018-12-03T12:35:42.637Z,4.65
2018-12-03T12:38:09.055Z,3.83
2018-12-03T12:40:35.478Z,3.58
2018-12-03T12:43:01.923Z,5.33
2018-12-03T12:45:28.439Z,3.98
2018-12-03T12:47:54.835Z,3.33
2018-12-03T12:50:21.264Z,3.77
2018-12-03T12:52:47.953Z,4.22
2018-12-03T12:55:14.568Z,4.20
2018-12-03T12:57:40.991Z,3.67
2018-12-03T13:00:09.045Z,4.53
2018-12-03T13:02:35.451Z,3.90
2018-12-03T13:05:01.928Z,3.75
2018-12-03T13:07:28.323Z,3.45
2018-12-03T13:09:54.875Z,3.80
2018-12-03T13:12:21.392Z,3.63
2018-12-03T13:14:47.887Z,3.83
2018-12-03T13:17:14.309Z,3.65
2018-12-03T13:19:40.698Z,3.30
2018-12-03T13:22:07.140Z,3.58
2018-12-03T13:24:33.591Z,2.90
2018-12-03T13:27:00.144Z,5.45
2018-12-03T13:29:26.555Z,3.45
2018-12-03T13:31:53.183Z,3.60
2018-12-03T13:34:19.715Z,3.25
2018-12-03T13:36:46.131Z,3.87
2018-12-03T13:39:12.557Z,2.98
2018-12-03T13:41:38.973Z,4.05
2018-12-03T13:44:05.398Z,2.95
2018-12-03T13:46:31.763Z,3.17
2018-12-03T13:48:58.234Z,3.20
2018-12-03T13:51:24.654Z,2.60
2018-12-03T13:53:51.195Z,3.10
2018-12-03T13:56:17.611Z,4.42
2018-12-03T13:58:44.113Z,4.17
2018-12-03T14:01:10.524Z,3.73
2018-12-03T14:03:36.908Z,3.83
2018-12-03T14:06:05.085Z,4.37
2018-12-03T14:08:31.699Z,4.80
2018-12-03T14:10:58.103Z,4.20
2018-12-03T14:13:24.711Z,4.12
2018-12-03T14:15:51.535Z,5.40
2018-12-03T14:18:17.984Z,4.80
2018-12-03T14:20:44.489Z,4.45
2018-12-03T14:23:10.929Z,3.85
2018-12-03T14:25:37.334Z,3.45
2018-12-03T14:28:04.441Z,5.65
2018-12-03T14:30:30.852Z,3.02
2018-12-03T14:32:57.323Z,2.92
2018-12-03T14:35:30.820Z,3.20
2018-12-03T14:37:57.289Z,3.92
2018-12-03T14:40:23.802Z,3.92
2018-12-03T14:42:50.349Z,4.90
2018-12-03T14:45:16.894Z,4.03
2018-12-03T14:47:43.343Z,3.40
2018-12-03T14:50:09.804Z,3.65
2018-12-03T14:52:36.331Z,4.28
2018-12-03T14:55:03.422Z,5.03
2018-12-03T14:57:29.838Z,3.40
2018-12-03T14:59:56.308Z,4.67
2018-12-03T15:02:22.798Z,4.55
2018-12-03T15:04:49.242Z,3.65
2018-12-03T15:07:15.696Z,3.02
2018-12-03T15:09:42.111Z,3.12
2018-12-03T15:12:08.527Z,3.12
2018-12-03T15:14:34.916Z,2.83
2018-12-03T15:17:01.378Z,3.08
2018-12-03T15:19:27.791Z,2.70
2018-12-03T15:21:54.191Z,2.72
2018-12-03T15:24:20.585Z,3.52
2018-12-03T15:26:47.008Z,2.72
2018-12-03T15:29:13.420Z,2.37
2018-12-03T15:31:39.850Z,2.70
2018-12-03T15:34:06.302Z,2.95
2018-12-03T15:36:32.674Z,2.45
2018-12-03T15:38:59.201Z,2.47
2018-12-03T15:41:25.774Z,2.60
2018-12-03T15:43:52.201Z,2.90
2018-12-03T15:46:18.587Z,3.00
2018-12-03T15:48:45.007Z,3.22
2018-12-03T15:51:11.807Z,3.50
2018-12-03T15:53:38.239Z,2.98
2018-12-03T15:56:04.652Z,2.95
2018-12-03T15:58:31.124Z,1.95
2018-12-03T16:00:57.537Z,2.67
2018-12-03T16:03:23.928Z,2.70
2018-12-03T16:05:50.309Z,2.45
2018-12-03T16:08:16.712Z,2.52
2018-12-03T16:10:43.218Z,2.30
2018-12-03T16:13:09.615Z,3.20
2018-12-03T16:15:36.030Z,1.82
2018-12-03T16:18:02.463Z,2.30
2018-12-03T16:20:35.781Z,2.00
2018-12-03T16:23:02.255Z,2.37
2018-12-03T16:25:28.625Z,1.30
2018-12-03T16:27:55.060Z,1.50
2018-12-03T16:30:21.519Z,1.92
2018-12-03T16:32:47.947Z,1.90
2018-12-03T16:35:14.294Z,1.90
2018-12-03T16:37:40.678Z,1.52
2018-12-03T16:40:07.116Z,2.08
2018-12-03T16:42:33.492Z,1.35
2018-12-03T16:45:07.926Z,1.45
2018-12-03T16:47:34.311Z,1.82
2018-12-03T16:50:00.732Z,1.25
2018-12-03T16:52:27.237Z,1.57
2018-12-03T16:54:53.663Z,1.47
2018-12-03T16:57:20.052Z,1.40
2018-12-03T16:59:46.571Z,1.20
2018-12-03T17:02:12.944Z,0.95
2018-12-03T17:04:39.435Z,1.70
2018-12-03T17:07:05.826Z,1.82
2018-12-03T17:09:32.254Z,1.60
2018-12-03T17:11:58.861Z,1.60
2018-12-03T17:14:25.311Z,1.77
2018-12-03T17:16:51.695Z,2.62
2018-12-03T17:19:18.126Z,1.75
2018-12-03T17:21:45.562Z,2.83
2018-12-03T17:24:11.996Z,1.70
2018-12-03T17:26:38.468Z,1.70
2018-12-03T17:29:04.927Z,1.10
2018-12-03T17:31:31.377Z,1.87
2018-12-03T17:33:58.025Z,2.65
2018-12-03T17:36:24.471Z,2.10
2018-12-03T17:38:51.028Z,1.62
2018-12-03T17:41:17.514Z,2.35
2018-12-03T17:43:43.922Z,1.90
2018-12-03T17:46:10.333Z,1.55
2018-12-03T17:48:36.862Z,1.87
2018-12-03T17:51:03.342Z,2.40
2018-12-03T17:53:29.778Z,2.35
2018-12-03T17:55:56.256Z,2.47
2018-12-03T17:58:22.628Z,2.05
2018-12-03T18:00:49.072Z,2.22
2018-12-03T18:03:15.527Z,2.92
2018-12-03T18:05:42.106Z,2.45
2018-12-03T18:08:08.537Z,1.90
2018-12-03T18:10:35.060Z,2.50
2018-12-03T18:13:01.555Z,2.10
2018-12-03T18:15:28.046Z,1.82
2018-12-03T18:17:54.559Z,1.50
2018-12-03T18:20:20.991Z,1.60
2018-12-03T18:22:47.380Z,1.90
2018-12-03T18:25:13.828Z,1.87
2018-12-03T18:27:40.251Z,2.30
2018-12-03T18:30:06.668Z,2.25
2018-12-03T18:32:33.110Z,2.40
2018-12-03T18:34:59.506Z,2.27
2018-12-03T18:37:25.938Z,2.22
2018-12-03T18:39:52.332Z,2.42
2018-12-03T18:42:18.924Z,2.47
2018-12-03T18:44:45.319Z,2.60
2018-12-03T18:47:11.805Z,2.30
2018-12-03T18:49:38.263Z,1.95
2018-12-03T18:52:04.656Z,2.83
2018-12-03T18:54:31.049Z,2.65
2018-12-03T18:56:57.478Z,2.37
2018-12-03T18:59:23.925Z,2.80
2018-12-03T19:01:57.388Z,2.02
2018-12-03T19:04:23.825Z,3.20
2018-12-03T19:06:50.247Z,2.62
2018-12-03T19:09:16.725Z,2.60
2018-12-03T19:11:43.155Z,2.83
2018-12-03T19:14:09.651Z,2.50
2018-12-03T19:16:36.018Z,2.90
2018-12-03T19:19:02.421Z,2.85
2018-12-03T19:21:29.000Z,3.17
2018-12-03T19:23:55.395Z,2.80
2018-12-03T19:26:21.896Z,4.62
2018-12-03T19:28:48.292Z,3.08
2018-12-03T19:31:14.687Z,2.85
2018-12-03T19:33:41.181Z,3.10
2018-12-03T19:36:07.555Z,2.70
2018-12-03T19:38:33.959Z,2.55
2018-12-03T19:41:00.336Z,3.30
2018-12-03T19:43:26.743Z,3.65
2018-12-03T19:45:53.160Z,2.83
2018-12-03T19:48:19.578Z,3.35
2018-12-03T19:50:45.958Z,4.25
2018-12-03T19:53:12.361Z,3.25
2018-12-03T19:55:38.857Z,2.87
2018-12-03T19:58:05.255Z,3.08
2018-12-03T20:00:31.671Z,5.58
2018-12-03T20:02:58.052Z,3.33
2018-12-03T20:05:24.438Z,3.12
2018-12-03T20:07:50.864Z,4.37
2018-12-03T20:10:17.356Z,3.52
2018-12-03T20:12:43.727Z,3.30
2018-12-03T20:15:10.374Z,2.92
2018-12-03T20:17:36.765Z,5.20
2018-12-03T20:20:05.240Z,2.50
2018-12-03T20:22:31.757Z,2.50
2018-12-03T20:25:05.588Z,3.00
2018-12-03T20:27:32.304Z,3.20
2018-12-03T20:29:58.711Z,3.25
2018-12-03T20:32:25.397Z,3.17
2018-12-03T20:34:51.906Z,3.70
2018-12-03T20:37:21.337Z,3.25
2018-12-03T20:39:51.830Z,3.62
2018-12-03T20:42:19.243Z,3.80
2018-12-03T20:44:45.803Z,3.58
2018-12-03T20:47:12.192Z,4.70
2018-12-03T20:49:38.698Z,3.17
2018-12-03T20:52:05.335Z,3.70
2018-12-03T20:54:31.723Z,3.55
2018-12-03T20:56:58.136Z,2.80
2018-12-03T20:59:24.511Z,3.15
2018-12-03T21:01:51.063Z,3.30
2018-12-03T21:04:19.497Z,3.15
2018-12-03T21:06:46.047Z,3.22
2018-12-03T21:09:12.424Z,2.87
2018-12-03T21:11:38.925Z,3.30
2018-12-03T21:14:05.288Z,2.40
2018-12-03T21:16:31.696Z,2.85
2018-12-03T21:18:58.219Z,3.15
2018-12-03T21:21:24.625Z,4.75
2018-12-03T21:23:51.013Z,2.90
2018-12-03T21:26:17.460Z,9.75
2018-12-03T21:28:43.895Z,4.03
2018-12-03T21:31:10.324Z,3.67
2018-12-03T21:33:36.729Z,3.37
2018-12-03T21:36:03.266Z,3.02
2018-12-03T21:38:29.682Z,4.75
2018-12-03T21:40:56.067Z,3.65
2018-12-03T21:43:22.455Z,3.92
2018-12-03T21:45:48.961Z,3.42
2018-12-03T21:48:15.351Z,5.58
2018-12-03T21:50:41.736Z,3.80
2018-12-03T21:53:08.145Z,2.85
2018-12-03T21:55:34.544Z,4.05
2018-12-03T21:58:00.981Z,3.47
2018-12-03T22:00:27.379Z,2.87
2018-12-03T22:02:53.792Z,3.67
2018-12-03T22:05:20.192Z,3.95
2018-12-03T22:07:46.604Z,2.80
2018-12-03T22:10:12.980Z,3.77
2018-12-03T22:12:39.408Z,3.22
2018-12-03T22:15:05.920Z,2.92
2018-12-03T22:17:39.404Z,3.20
2018-12-03T22:20:07.235Z,3.60
2018-12-03T22:22:33.756Z,3.58
2018-12-03T22:25:00.138Z,4.42
2018-12-03T22:27:26.556Z,4.40
2018-12-03T22:29:52.939Z,3.67
2018-12-03T22:32:19.353Z,3.35
2018-12-03T22:34:52.720Z,3.65
2018-12-03T22:37:19.313Z,3.55
2018-12-03T22:39:46.475Z,3.40
2018-12-03T22:42:13.228Z,3.95
2018-12-03T22:44:39.603Z,3.75
2018-12-03T22:47:13.143Z,3.52
2018-12-03T22:49:39.562Z,4.55
2018-12-03T22:52:06.178Z,3.80
2018-12-03T22:54:32.702Z,3.62
2018-12-03T22:56:59.202Z,3.92
2018-12-03T22:59:25.610Z,3.35
2018-12-03T23:01:52.036Z,4.45
2018-12-03T23:04:18.431Z,3.67
2018-12-03T23:06:44.816Z,4.42
2018-12-03T23:09:11.357Z,4.00
2018-12-03T23:11:37.773Z,4.35
2018-12-03T23:14:04.204Z,4.22
2018-12-03T23:16:30.604Z,3.95
2018-12-03T23:18:57.023Z,3.90
2018-12-03T23:21:23.409Z,3.92
2018-12-03T23:23:49.787Z,4.65
2018-12-03T23:26:16.188Z,4.30
2018-12-03T23:28:42.607Z,4.58
2018-12-03T23:31:16.014Z,3.60
2018-12-03T23:33:42.398Z,4.87
2018-12-03T23:36:08.944Z,3.52
2018-12-03T23:38:35.370Z,5.17
2018-12-03T23:41:01.829Z,4.10
2018-12-03T23:43:28.373Z,5.15
2018-12-03T23:45:54.808Z,4.85
2018-12-03T23:48:21.323Z,6.08
2018-12-03T23:50:47.720Z,5.47
2018-12-03T23:53:14.095Z,5.20
2018-12-03T23:55:40.542Z,6.00
2018-12-03T23:58:06.943Z,6.70
